Jérusalem, Israel

09:10 IDT le 25 juillet 2016 (GMT +0300)
Givat Zeev | | Change Station

Alt. 2543 ft 31.86 °N, 35.16 °E | Updated 6 minutes ago

Smoke
Fumée
73.5 ° F
Paraît 72 ° F
N
2.0
Vent Variable Vent de Ouest
Gusts 7.0 mph

Aujourd'hui
Haut(e) -- | Bas -- ° F
--% Risque de précip.
Hier
Haut(e) -- | Bas -- ° F
Precip. -- pouce
Pression 29.77 pouce
Visibilité 3.1 Miles terrestres
Nuages
indice de chaleur 72 ° F
Point de rosée 69 ° F
Humidité 86%
Précipitations 0.00 pouce
Profondeur de la couche neigeuse Non disponible.
5:50 AM 7:40 PM
Lune gibbeuse décroissante, 69% visible
METAR OJAM 250600Z 28006KT 5000 FU NSC 26/16 Q1008 NOSIG
Pression 29.77 pouce
Visibilité 3.1 Miles terrestres
Nuages
indice de chaleur 72 ° F
Point de rosée 69 ° F
Humidité 86%
Précipitations 0.00 pouce
Profondeur de la couche neigeuse Non disponible.
5:50 AM 7:40 PM
Lune gibbeuse décroissante, 69% visible
METAR OJAM 250600Z 28006KT 5000 FU NSC 26/16 Q1008 NOSIG

10-Day Weather Forecast

No radar image for this location.
×

Almanac

Astronomie

Jul. 25, 2016 Lever Coucher
Temps réel
Crépuscule civil
Crépuscule nautique
Crépuscule astronomique
Lune
Durée de lumière visible
Longueur du jour
Tomorrow will be .
, % of the Moon is Illuminated

Extrêmes aujourd'hui

Country Highs Country Lows

Community

WunderPhotos

Upload Photos

1,927,276 Photos téléchargées !

WunderBlog® & News

Nearby

Qualité de l'air

  Qualité de l'air Indice de la qualité de l'air Polluant
Not available.

Épaisseur de neige

Station Depth Altitude

Activité sismique

Ville Distance Mag. Time & Date
Minimum magnitude displayed is 2.5.

Températures des eaux côtières

Lieu Température

Stations

Stations météo à proximité

Emplacement de la station Température Refroidissement éolien Point de rosée Humidité Vent Precip. Alt. Mise à jour Type